Amoret, Missouri
Current Conditions -  °F | °C
As of 3:40 AM on Thursday 18 Dec 2014 (Local Time) from KOJC Reporting Station
Light Snow Light Snow  
Wind Chill: 21°   Ceiling: 3300
Heat Index: 28°   Visibility: 2mi
Dew Point: 27°   Wind: 7mph
Humidity: 96%   Direction: 70°ENE
Pressure: 30.2"   Gusts: NA
Location:  38.26°N, 94.59°W
Report Text: KOJC 180940Z AUTO 07006KT 2SM -SN BR FEW005 OVC033 M02/M03 A3020 RMK AO2 P0000 T10221028
Loading
Personal Weather Stations






























Interactive Weather Map New forecast layout! Learn more

10-Day Weather Forecast

Advertisements
Track Severe Weather on mobile